Time;durP1;ratioP1;P1;durP2;ratioP2;P2;SDS_P1;SDS_P2;PMS_P1;PMS_P2;Temp;Humidity;BMP_temperature;BMP_pressure;BME280_temperature;BME280_humidity;BME280_pressure;Samples;Min_cycle;Max_cycle;Signal;HPM_P1;HPM_P2
2024/02/02 00:06:30;;;;;;;12;6.3;;;;;;;4.04;77.75;99408.333333333;;;;
2024/02/02 00:17:30;;;;;;;12;6.3;;;;;;;3.99;77.87;99415;;;;
2024/02/02 00:27:30;;;;;;;9.3;4.7;;;;;;;3.99;77.58;99423.333333333;;;;
2024/02/02 00:38:30;;;;;;;9.3;4.7;;;;;;;3.98;77.49;99423.333333333;;;;
2024/02/02 00:48:30;;;;;;;9.3;4.7;;;;;;;3.96;77.44;99421.666666667;;;;
2024/02/02 00:59:30;;;;;;;10.8;5.6;;;;;;;3.98;77.16;99428.333333333;;;;
2024/02/02 01:10:30;;;;;;;10.8;5.6;;;;;;;3.94;76.59;99433.333333333;;;;
2024/02/02 01:21:30;;;;;;;10.8;5.6;;;;;;;3.96;76.43;99440;;;;
2024/02/02 01:31:30;;;;;;;8.3;4.6;;;;;;;3.92;76.46;99438.333333333;;;;
2024/02/02 01:42:30;;;;;;;8.3;4.6;;;;;;;3.9;76.18;99433.333333333;;;;
2024/02/02 01:53:30;;;;;;;8.3;4.6;;;;;;;3.9;76.29;99431.666666667;;;;
2024/02/02 02:04:30;;;;;;;9.7;5.1;;;;;;;3.97;76.27;99436.666666667;;;;
2024/02/02 02:14:30;;;;;;;9.7;5.1;;;;;;;3.87;76.68;99440;;;;
2024/02/02 02:25:30;;;;;;;10.1;3.6;;;;;;;3.85;76.74;99446.666666667;;;;
2024/02/02 02:36:30;;;;;;;10.1;3.6;;;;;;;3.75;77.65;99448.333333333;;;;
2024/02/02 02:46:31;;;;;;;10.1;3.6;;;;;;;3.72;78;99455;;;;
2024/02/02 02:57:30;;;;;;;8.5;3.6;;;;;;;3.69;78.25;99448.333333333;;;;
2024/02/02 03:08:30;;;;;;;8.5;3.6;;;;;;;3.69;78.36;99458.333333333;;;;
2024/02/02 03:19:30;;;;;;;8.5;3.6;;;;;;;3.58;78.58;99455;;;;
2024/02/02 03:29:30;;;;;;;10.7;3.7;;;;;;;3.54;79.15;99468.333333333;;;;
2024/02/02 03:40:30;;;;;;;10.7;3.7;;;;;;;3.57;78.96;99466.666666667;;;;
2024/02/02 03:51:30;;;;;;;10.7;3.7;;;;;;;3.58;78.99;99478.333333333;;;;
2024/02/02 04:02:30;;;;;;;9.1;3.5;;;;;;;3.55;79.1;99481.666666667;;;;
2024/02/02 04:13:30;;;;;;;9.1;3.5;;;;;;;3.48;79.41;99488.333333333;;;;
2024/02/02 04:23:30;;;;;;;9.1;3.5;;;;;;;3.5;79.37;99506.666666667;;;;
2024/02/02 04:34:30;;;;;;;8.8;3.8;;;;;;;3.43;79.52;99515;;;;
2024/02/02 04:44:30;;;;;;;8.8;3.8;;;;;;;3.25;79.92;99508.333333333;;;;
2024/02/02 04:55:30;;;;;;;12.3;4.1;;;;;;;3.06;80.82;99518.333333333;;;;
2024/02/02 05:06:30;;;;;;;12.3;4.1;;;;;;;3.01;81.7;99548.333333333;;;;
2024/02/02 05:17:30;;;;;;;12.3;4.1;;;;;;;3.07;81.41;99548.333333333;;;;
2024/02/02 05:28:31;;;;;;;14.8;5.2;;;;;;;3.08;81.4;99546.666666667;;;;
2024/02/02 05:39:30;;;;;;;14.8;5.2;;;;;;;3.15;81.01;99548.333333333;;;;
2024/02/02 05:50:30;;;;;;;14.8;5.2;;;;;;;3.25;80.62;99555;;;;
2024/02/02 06:01:30;;;;;;;9.6;4.6;;;;;;;3.31;80.72;99551.666666667;;;;
2024/02/02 06:12:30;;;;;;;9.6;4.6;;;;;;;3.18;81.49;99566.666666667;;;;
2024/02/02 06:23:30;;;;;;;9.6;4.6;;;;;;;3.25;82.02;99568.333333333;;;;
2024/02/02 06:34:30;;;;;;;10.3;4.5;;;;;;;3.21;84.12;99570;;;;
2024/02/02 06:45:30;;;;;;;10.3;4.5;;;;;;;3.28;84.46;99568.333333333;;;;
2024/02/02 06:55:30;;;;;;;11.5;5.6;;;;;;;3.25;84.71;99575;;;;
2024/02/02 07:06:31;;;;;;;11.5;5.6;;;;;;;3.41;84.05;99578.333333333;;;;
2024/02/02 07:16:30;;;;;;;11.5;5.6;;;;;;;3.42;84.21;99593.333333333;;;;
2024/02/02 07:27:30;;;;;;;10.2;4.4;;;;;;;2.87;86.52;99616.666666667;;;;
2024/02/02 07:37:30;;;;;;;10.2;4.4;;;;;;;2.72;87.58;99615;;;;
2024/02/02 07:48:30;;;;;;;10.2;4.4;;;;;;;2.85;87.5;99613.333333333;;;;
2024/02/02 07:59:30;;;;;;;11;6.1;;;;;;;2.85;87.47;99611.666666667;;;;
2024/02/02 08:10:30;;;;;;;11;6.1;;;;;;;3.19;87.47;99628.333333333;;;;
2024/02/02 08:21:30;;;;;;;11;6.1;;;;;;;3.52;86.53;99638.333333333;;;;
2024/02/02 08:31:30;;;;;;;12.4;5.7;;;;;;;3.54;85.42;99645;;;;
2024/02/02 08:41:30;;;;;;;12.4;5.7;;;;;;;3.62;84.5;99660;;;;
2024/02/02 08:51:30;;;;;;;12.4;5.7;;;;;;;3.81;83.13;99668.333333333;;;;
2024/02/02 09:02:30;;;;;;;11.3;5;;;;;;;3.98;82.31;99668.333333333;;;;
2024/02/02 09:12:30;;;;;;;11.3;5;;;;;;;4.14;82.07;99658.333333333;;;;
2024/02/02 09:23:30;;;;;;;11.3;5;;;;;;;4.23;81.4;99660;;;;
2024/02/02 09:33:30;;;;;;;18.1;8.6;;;;;;;4.57;79.88;99658.333333333;;;;
2024/02/02 09:44:30;;;;;;;18.1;8.6;;;;;;;4.63;77.88;99651.666666667;;;;
2024/02/02 09:54:31;;;;;;;13.8;6.6;;;;;;;4.8;77.51;99650;;;;
2024/02/02 10:05:31;;;;;;;13.8;6.6;;;;;;;4.88;77.27;99650;;;;
2024/02/02 10:15:30;;;;;;;13.8;6.6;;;;;;;4.96;76.6;99648.333333333;;;;
2024/02/02 10:25:31;;;;;;;12.8;5.1;;;;;;;4.73;76.52;99646.666666667;;;;
2024/02/02 10:36:30;;;;;;;12.8;5.1;;;;;;;4.95;75.85;99636.666666667;;;;
2024/02/02 10:46:30;;;;;;;12.8;5.1;;;;;;;5.09;75.18;99613.333333333;;;;
2024/02/02 10:57:30;;;;;;;11.8;5.4;;;;;;;5.18;73.27;99608.333333333;;;;
2024/02/02 11:07:30;;;;;;;11.8;5.4;;;;;;;4.88;72.96;99596.666666667;;;;
2024/02/02 11:17:33;;;;;;;11.8;5.4;;;;;;;5.47;71.72;99578.333333333;;;;
2024/02/02 11:28:30;;;;;;;13.1;5.7;;;;;;;5.84;69.86;99566.666666667;;;;
2024/02/02 11:38:30;;;;;;;13.1;5.7;;;;;;;5.67;70.26;99555;;;;
2024/02/02 11:49:31;;;;;;;13.1;5.7;;;;;;;5.61;69.99;99543.333333333;;;;
2024/02/02 12:00:30;;;;;;;15.3;5.2;;;;;;;5.63;68.55;99538.333333333;;;;
2024/02/02 12:10:32;;;;;;;15.3;5.2;;;;;;;6.41;67.49;99535;;;;
2024/02/02 12:21:30;;;;;;;15.3;5.2;;;;;;;6.52;66.17;99518.333333333;;;;
2024/02/02 12:31:30;;;;;;;10.8;5.4;;;;;;;6.8;66.31;99508.333333333;;;;
2024/02/02 12:42:30;;;;;;;10.8;5.4;;;;;;;6.9;65.22;99491.666666667;;;;
2024/02/02 12:52:31;;;;;;;10.8;5.4;;;;;;;7.22;64.36;99481.666666667;;;;
2024/02/02 13:03:30;;;;;;;11.4;6.1;;;;;;;6.96;63.69;99475;;;;
2024/02/02 13:13:33;;;;;;;11.4;6.1;;;;;;;6.45;64.45;99466.666666667;;;;
2024/02/02 13:24:31;;;;;;;11;5.8;;;;;;;6.52;65.15;99451.666666667;;;;
2024/02/02 13:34:30;;;;;;;11;5.8;;;;;;;6.3;66.2;99440;;;;
2024/02/02 13:45:31;;;;;;;11;5.8;;;;;;;6.21;67.13;99436.666666667;;;;
2024/02/02 13:56:32;;;;;;;15.2;5.9;;;;;;;6.25;68.06;99413.333333333;;;;
2024/02/02 14:02:45;;;;;;;15.2;5.9;;;;;;;6.1;68.18;99395;;;;
2024/02/02 14:12:47;;;;;;;15.2;5.9;;;;;;;6.09;68.61;99380;;;;
2024/02/02 14:22:45;;;;;;;15.2;5.9;;;;;;;5.97;68.45;99388.333333333;;;;
2024/02/02 14:33:45;;;;;;;11.3;4.5;;;;;;;5.88;68.66;99398.333333333;;;;
2024/02/02 14:43:46;;;;;;;11.3;4.5;;;;;;;5.84;68.15;99385;;;;
2024/02/02 14:53:45;;;;;;;11.5;5.1;;;;;;;5.71;68.36;99366.666666667;;;;
2024/02/02 15:04:45;;;;;;;11.5;5.1;;;;;;;5.68;68.56;99346.666666667;;;;
2024/02/02 15:14:45;;;;;;;11.5;5.1;;;;;;;5.55;68.44;99335;;;;
2024/02/02 15:25:45;;;;;;;11.2;4.9;;;;;;;5.22;68.63;99331.666666667;;;;
2024/02/02 15:36:45;;;;;;;11.2;4.9;;;;;;;4.93;69.18;99320;;;;
2024/02/02 15:47:45;;;;;;;11.2;4.9;;;;;;;4.66;70.08;99305;;;;
2024/02/02 15:57:50;;;;;;;9.7;5.3;;;;;;;4.48;70.57;99298.333333333;;;;
2024/02/02 16:07:45;;;;;;;9.7;5.3;;;;;;;4.33;70.68;99278.333333333;;;;
2024/02/02 16:18:45;;;;;;;9.7;5.3;;;;;;;4.23;71.2;99266.666666667;;;;
2024/02/02 16:28:45;;;;;;;15.3;7.8;;;;;;;4.31;70.28;99258.333333333;;;;
2024/02/02 16:38:45;;;;;;;15.3;7.8;;;;;;;4.39;70.72;99251.666666667;;;;
2024/02/02 16:49:47;;;;;;;15.3;7.8;;;;;;;4.47;70.83;99241.666666667;;;;
2024/02/02 16:59:45;;;;;;;10.5;6.6;;;;;;;4.45;71.18;99238.333333333;;;;
2024/02/02 17:10:46;;;;;;;10.5;6.6;;;;;;;4.27;71.62;99238.333333333;;;;
2024/02/02 17:21:45;;;;;;;10.5;6.6;;;;;;;4.1;72.55;99213.333333333;;;;
2024/02/02 17:31:46;;;;;;;17.4;8.9;;;;;;;4.04;73.06;99203.333333333;;;;
2024/02/02 17:41:45;;;;;;;17.4;8.9;;;;;;;4.02;73.67;99195;;;;
2024/02/02 17:52:45;;;;;;;17.4;8.9;;;;;;;4.1;73.23;99168.333333333;;;;
2024/02/02 18:02:45;;;;;;;11.2;5.7;;;;;;;4.18;73.17;99161.666666667;;;;
2024/02/02 18:13:45;;;;;;;11.2;5.7;;;;;;;4.34;72.49;99138.333333333;;;;
2024/02/02 18:23:45;;;;;;;11.2;5.4;;;;;;;4.44;72.52;99111.666666667;;;;
2024/02/02 18:34:45;;;;;;;11.2;5.4;;;;;;;4.39;73.29;99080;;;;
2024/02/02 18:44:45;;;;;;;11.2;5.4;;;;;;;4.45;73.56;99068.333333333;;;;
2024/02/02 18:55:45;;;;;;;9.5;5.5;;;;;;;4.42;73.79;99060;;;;
2024/02/02 19:06:45;;;;;;;9.5;5.5;;;;;;;4.41;74.05;99035;;;;
2024/02/02 19:17:47;;;;;;;9.5;5.5;;;;;;;4.51;74.23;99018.333333333;;;;
2024/02/02 19:28:45;;;;;;;10.7;6.2;;;;;;;4.53;74.12;98995;;;;
2024/02/02 19:39:46;;;;;;;10.7;6.2;;;;;;;4.52;74.57;98960;;;;
2024/02/02 19:49:45;;;;;;;10.7;6.2;;;;;;;4.64;74.44;98950;;;;
2024/02/02 20:00:45;;;;;;;11.3;5.7;;;;;;;4.76;74.32;98928.333333333;;;;
2024/02/02 20:10:45;;;;;;;11.3;5.7;;;;;;;4.79;74.13;98910;;;;
2024/02/02 20:21:47;;;;;;;11.3;5.7;;;;;;;4.83;74.31;98900;;;;
2024/02/02 20:32:45;;;;;;;8.7;5.1;;;;;;;4.87;74.62;98880;;;;
2024/02/02 20:42:46;;;;;;;8.7;5.1;;;;;;;4.97;74.44;98886.666666667;;;;
2024/02/02 20:53:45;;;;;;;10.1;5;;;;;;;5.02;74.09;98880;;;;
2024/02/02 21:04:45;;;;;;;10.1;5;;;;;;;5.06;74.34;98878.333333333;;;;
2024/02/02 21:14:45;;;;;;;10.1;5;;;;;;;5.1;74.94;98880;;;;
2024/02/02 21:24:45;;;;;;;9.9;5.1;;;;;;;5.11;74.68;98883.333333333;;;;
2024/02/02 21:35:46;;;;;;;9.9;5.1;;;;;;;5.18;74.96;98893.333333333;;;;
2024/02/02 21:45:45;;;;;;;9.9;5.1;;;;;;;5.21;75.54;98893.333333333;;;;
2024/02/02 21:55:45;;;;;;;10.3;4.2;;;;;;;5.33;75.98;98885;;;;
2024/02/02 22:06:46;;;;;;;10.3;4.2;;;;;;;5.26;77.02;98878.333333333;;;;
2024/02/02 22:17:45;;;;;;;10.3;4.2;;;;;;;5.26;77.96;98868.333333333;;;;
2024/02/02 22:27:46;;;;;;;10.6;5;;;;;;;5.32;78.2;98871.666666667;;;;
2024/02/02 22:37:46;;;;;;;10.6;5;;;;;;;5.26;79.4;98870;;;;
2024/02/02 22:48:45;;;;;;;10.6;5;;;;;;;5.33;79.85;98855;;;;
2024/02/02 22:58:46;;;;;;;11.1;6.3;;;;;;;5.27;81.13;98838.333333333;;;;
2024/02/02 23:09:46;;;;;;;11.1;6.3;;;;;;;5.33;81.61;98816.666666667;;;;
2024/02/02 23:20:45;;;;;;;11.1;6.3;;;;;;;5.33;81.82;98796.666666667;;;;
2024/02/02 23:30:45;;;;;;;8.3;5.4;;;;;;;5.45;81.53;98778.333333333;;;;
2024/02/02 23:41:45;;;;;;;8.3;5.4;;;;;;;5.46;81.42;98771.666666667;;;;
2024/02/02 23:51:45;;;;;;;8.3;5.4;;;;;;;5.54;81.03;98770;;;;
